Silver Cross, Alabama
Current Conditions -  °F | °C
As of 6:55 PM on Sunday 23 Nov 2014 (Local Time) from KDYA Reporting Station
Clear Clear  
Wind Chill: 63°   Ceiling: Unl
Heat Index: 63°   Visibility: 10mi
Dew Point: 60°   Wind: 8mph
Humidity: 90%   Direction: 170°S
Pressure: 29.63"   Gusts: NA
Location:  31.6568°N, 88.1356°W
Report Text: KDYA 240055Z AUTO 17007KT 10SM CLR 17/16 A2963 RMK AO2 T01730156
Loading
Personal Weather Stations






























Interactive Weather Map New forecast layout! Learn more

10-Day Weather Forecast

Advertisements
Track Severe Weather on mobile